Zeynalabdin Tagiyev — 9HLD8 — position and weather

sailwx.info

Track history (hours):
 
Tides and Currents Weather Stations Pressure Air Temp Water Temp Dewpoint Dewpoint Depression Visibility Wind Speed Wind Dir Waves Ship Positions

Zeynalabdin Tagiyev

Last reported at 2018-May-26 00:12 UTC. Time now 2018-May-26 12:05 UTC.
Position N 31°50' E 034°39'.

Length 140 m; draft 4.1 m.

Type: Cargo ship. MMSI: 256107000.

Date/timePositionNaut miles runAvg speedWind from/ knotsBaromVisibWave heightAir tempDewpointWater temp
2018-May-26 00:12N 31°50' E 034°39'0 0.0
2018-May-26 00:00N 31°50' E 034°39'0 0.0
2018-May-25 23:27N 31°50' E 034°39'0 0.0
2018-May-25 23:00N 31°50' E 034°39'0 0.0
2018-May-25 22:30N 31°50' E 034°39'0 0.0
2018-May-25 21:58N 31°50' E 034°39'0 0.0
2018-May-25 21:26N 31°50' E 034°39'0 0.0
2018-May-25 20:59N 31°50' E 034°39'0 0.0
2018-May-25 20:28N 31°50' E 034°39'0 0.0
2018-May-25 20:00N 31°50' E 034°39'0 0.0
2018-May-25 19:29N 31°50' E 034°39'0 0.0
2018-May-25 18:57N 31°50' E 034°39'0 0.0
2018-May-25 18:29N 31°50' E 034°39'0 0.0
2018-May-25 15:23N 31°50' E 034°39'0 0.0
2018-May-25 14:27N 31°50' E 034°39'0 0.0
2018-May-25 13:59N 31°50' E 034°39'0 0.0
2018-May-25 13:26N 31°50' E 034°39'0 0.0
2018-May-25 12:54N 31°50' E 034°39'0 0.0
2018-May-25 12:29N 31°50' E 034°39'0 0.0
2018-May-25 11:56N 31°50' E 034°39'0 0.0
2018-May-24 17:15N 31°50' E 034°39'0 0.0
2018-May-24 15:40N 31°50' E 034°39'3 0.1
2018-May-22 13:17N 31°50' E 034°36'0 0.0
2018-May-22 12:50N 31°50' E 034°36'0 0.0
2018-May-22 01:23N 31°50' E 034°36'0 0.0
2018-May-22 00:45N 31°50' E 034°36'0 0.0
2018-May-21 23:48N 31°50' E 034°36'0 0.0
2018-May-21 19:09N 31°50' E 034°36'0 0.1
2018-May-21 18:59N 31°50' E 034°36'0 0.0
2018-May-21 18:04N 31°50' E 034°36'0 0.0
2018-May-21 15:06N 31°50' E 034°36'0 0.0
2018-May-21 14:59N 31°50' E 034°36'0 0.0
2018-May-21 08:20N 31°50' E 034°36'0 0.0
2018-May-21 08:00N 31°50' E 034°36'0 0.1
2018-May-21 07:30N 31°50' E 034°36'0 0.0
2018-May-21 06:52N 31°50' E 034°36'0 0.0
2018-May-21 06:27N 31°50' E 034°36'0 0.0
2018-May-21 05:59N 31°50' E 034°36'0 0.0
2018-May-21 05:24N 31°50' E 034°36'0 0.0
2018-May-21 02:50N 31°50' E 034°36'0 0.0
2018-May-21 02:26N 31°50' E 034°36'0 0.0
2018-May-21 01:58N 31°50' E 034°36'0 0.0
2018-May-21 01:24N 31°50' E 034°36'0 0.0
2018-May-21 00:47N 31°50' E 034°36'0 0.0
2018-May-21 00:29N 31°50' E 034°36'0 0.0
2018-May-20 21:16N 31°50' E 034°36'0 0.0
2018-May-20 20:58N 31°50' E 034°36'0 0.0
2018-May-20 20:27N 31°50' E 034°36'0 0.0
2018-May-20 19:55N 31°50' E 034°36'0 0.0
2018-May-20 11:00N 31°50' E 034°36'0 0.0
2018-May-20 03:41N 31°50' E 034°36'0 0.0
2018-May-20 00:51N 31°50' E 034°36'0 0.0
2018-May-20 00:26N 31°50' E 034°36'0 0.0
2018-May-19 22:51N 31°50' E 034°36'0 0.0
2018-May-19 22:05N 31°50' E 034°36'0 0.0
2018-May-19 21:58N 31°50' E 034°36'0 0.0
2018-May-19 21:27N 31°50' E 034°36'0 0.0
2018-May-19 20:59N 31°50' E 034°36'0 0.0
2018-May-19 20:28N 31°50' E 034°36'0 0.0
2018-May-19 19:48N 31°50' E 034°36'0 0.0
2018-May-19 18:20N 31°50' E 034°36'0 0.0
2018-May-19 17:46N 31°50' E 034°36'0 0.0
2018-May-19 17:24N 31°50' E 034°36'0 0.0
2018-May-19 17:00N 31°50' E 034°36'0 0.0
2018-May-19 16:29N 31°50' E 034°36'3 0.3
2018-May-19 04:28N 31°51' E 034°32'3 6.2
2018-May-19 03:55N 31°52' E 034°29'3 6.3
2018-May-19 03:26N 31°54' E 034°25'3 6.5
2018-May-19 02:59N 31°55' E 034°22'3 6.4
2018-May-19 02:28N 31°56' E 034°19'3 6.2
2018-May-19 02:00N 31°57' E 034°16'5 6.0
2018-May-19 01:05N 31°60' E 034°10'1 6.0
2018-May-19 01:00N 32°00' E 034°09'21 5.3
2018-May-18 21:00N 32°09' E 033°47'3 5.4
2018-May-18 20:29N 32°11' E 033°44'3 5.6
2018-May-18 20:01N 32°12' E 033°41'9 5.8
2018-May-18 18:24N 32°17' E 033°32'9 6.3
2018-May-18 16:59N 32°23' E 033°23'6 6.6
2018-May-18 16:04N 32°26' E 033°18'2 6.7
2018-May-18 15:49N 32°27' E 033°16'2 6.7
2018-May-18 15:31N 32°28' E 033°14'11 6.6
2018-May-18 13:46N 32°35' E 033°03'  
Track history (hours):
 
Tides and Currents Weather Stations Pressure Air Temp Water Temp Dewpoint Dewpoint Depression Visibility Wind Speed Wind Dir Waves Ship Positions

Zeynalabdin Tagiyev

Last reported at 2018-May-26 00:12 UTC. Time now 2018-May-26 12:05 UTC.
Position N 31°50' E 034°39'.

Length 140 m; draft 4.1 m.

Type: Cargo ship. MMSI: 256107000.

Date/timePositionNaut miles runAvg speedWind from/ knotsBaromVisibWave heightAir tempDewpointWater temp
2018-May-26 00:12N 31°50' E 034°39'0 0.0
2018-May-26 00:00N 31°50' E 034°39'0 0.0
2018-May-25 23:27N 31°50' E 034°39'0 0.0
2018-May-25 23:00N 31°50' E 034°39'0 0.0
2018-May-25 22:30N 31°50' E 034°39'0 0.0
2018-May-25 21:58N 31°50' E 034°39'0 0.0
2018-May-25 21:26N 31°50' E 034°39'0 0.0
2018-May-25 20:59N 31°50' E 034°39'0 0.0
2018-May-25 20:28N 31°50' E 034°39'0 0.0
2018-May-25 20:00N 31°50' E 034°39'0 0.0
2018-May-25 19:29N 31°50' E 034°39'0 0.0
2018-May-25 18:57N 31°50' E 034°39'0 0.0
2018-May-25 18:29N 31°50' E 034°39'0 0.0
2018-May-25 15:23N 31°50' E 034°39'0 0.0
2018-May-25 14:27N 31°50' E 034°39'0 0.0
2018-May-25 13:59N 31°50' E 034°39'0 0.0
2018-May-25 13:26N 31°50' E 034°39'0 0.0
2018-May-25 12:54N 31°50' E 034°39'0 0.0
2018-May-25 12:29N 31°50' E 034°39'0 0.0
2018-May-25 11:56N 31°50' E 034°39'0 0.0
2018-May-24 17:15N 31°50' E 034°39'0 0.0
2018-May-24 15:40N 31°50' E 034°39'3 0.1
2018-May-22 13:17N 31°50' E 034°36'0 0.0
2018-May-22 12:50N 31°50' E 034°36'0 0.0
2018-May-22 01:23N 31°50' E 034°36'0 0.0
2018-May-22 00:45N 31°50' E 034°36'0 0.0
2018-May-21 23:48N 31°50' E 034°36'0 0.0
2018-May-21 19:09N 31°50' E 034°36'0 0.1
2018-May-21 18:59N 31°50' E 034°36'0 0.0
2018-May-21 18:04N 31°50' E 034°36'0 0.0
2018-May-21 15:06N 31°50' E 034°36'0 0.0
2018-May-21 14:59N 31°50' E 034°36'0 0.0
2018-May-21 08:20N 31°50' E 034°36'0 0.0
2018-May-21 08:00N 31°50' E 034°36'0 0.1
2018-May-21 07:30N 31°50' E 034°36'0 0.0
2018-May-21 06:52N 31°50' E 034°36'0 0.0
2018-May-21 06:27N 31°50' E 034°36'0 0.0
2018-May-21 05:59N 31°50' E 034°36'0 0.0
2018-May-21 05:24N 31°50' E 034°36'0 0.0
2018-May-21 02:50N 31°50' E 034°36'0 0.0
2018-May-21 02:26N 31°50' E 034°36'0 0.0
2018-May-21 01:58N 31°50' E 034°36'0 0.0
2018-May-21 01:24N 31°50' E 034°36'0 0.0
2018-May-21 00:47N 31°50' E 034°36'0 0.0
2018-May-21 00:29N 31°50' E 034°36'0 0.0
2018-May-20 21:16N 31°50' E 034°36'0 0.0
2018-May-20 20:58N 31°50' E 034°36'0 0.0
2018-May-20 20:27N 31°50' E 034°36'0 0.0
2018-May-20 19:55N 31°50' E 034°36'0 0.0
2018-May-20 11:00N 31°50' E 034°36'0 0.0
2018-May-20 03:41N 31°50' E 034°36'0 0.0
2018-May-20 00:51N 31°50' E 034°36'0 0.0
2018-May-20 00:26N 31°50' E 034°36'0 0.0
2018-May-19 22:51N 31°50' E 034°36'0 0.0
2018-May-19 22:05N 31°50' E 034°36'0 0.0
2018-May-19 21:58N 31°50' E 034°36'0 0.0
2018-May-19 21:27N 31°50' E 034°36'0 0.0
2018-May-19 20:59N 31°50' E 034°36'0 0.0
2018-May-19 20:28N 31°50' E 034°36'0 0.0
2018-May-19 19:48N 31°50' E 034°36'0 0.0
2018-May-19 18:20N 31°50' E 034°36'0 0.0
2018-May-19 17:46N 31°50' E 034°36'0 0.0
2018-May-19 17:24N 31°50' E 034°36'0 0.0
2018-May-19 17:00N 31°50' E 034°36'0 0.0
2018-May-19 16:29N 31°50' E 034°36'3 0.3
2018-May-19 04:28N 31°51' E 034°32'3 6.2
2018-May-19 03:55N 31°52' E 034°29'3 6.3
2018-May-19 03:26N 31°54' E 034°25'3 6.5
2018-May-19 02:59N 31°55' E 034°22'3 6.4
2018-May-19 02:28N 31°56' E 034°19'3 6.2
2018-May-19 02:00N 31°57' E 034°16'5 6.0
2018-May-19 01:05N 31°60' E 034°10'1 6.0
2018-May-19 01:00N 32°00' E 034°09'21 5.3
2018-May-18 21:00N 32°09' E 033°47'3 5.4
2018-May-18 20:29N 32°11' E 033°44'3 5.6
2018-May-18 20:01N 32°12' E 033°41'9 5.8
2018-May-18 18:24N 32°17' E 033°32'9 6.3
2018-May-18 16:59N 32°23' E 033°23'6 6.6
2018-May-18 16:04N 32°26' E 033°18'2 6.7
2018-May-18 15:49N 32°27' E 033°16'2 6.7
2018-May-18 15:31N 32°28' E 033°14'11 6.6
2018-May-18 13:46N 32°35' E 033°03'  

Dump ship's entire track history